QXE2060 KSEA-KGPI
Flight info
| Callsign | QXE2060 |
|---|---|
| Flight time | 0h 56m |
| Altitude | 31000 |
| Route | MONTN2 SEA ZADON ZELAK ZIRAN ZAXBY OLIBY |
| Aircraft | E75L/M-SDE3GILORVW/S |
Departure
| Time | 2026-05-04 03:05 |
|---|---|
| Airport | Seattle–Tacoma International Airport (KSEA) |
Arrival
| Time | 2026-05-04 04:02 |
|---|---|
| Airport | Glacier Park International Airport (KGPI) |
| Time | Latitude | Longitude | Altitude | Speed | Heading |
|---|---|---|---|---|---|
| 2026-05-04 02:43 | 47.44163 | -122.30456 | 387 ft | 0 kts | 91° |
| 2026-05-04 02:58 | 47.44163 | -122.30463 | 387 ft | 3 kts | 91° |
| 2026-05-04 02:58 | 47.44164 | -122.30502 | 387 ft | 4 kts | 99° |
| 2026-05-04 02:58 | 47.44175 | -122.30535 | 387 ft | 4 kts | 145° |
| 2026-05-04 02:58 | 47.44187 | -122.30541 | 387 ft | 2 kts | 180° |
| 2026-05-04 03:01 | 47.44174 | -122.30542 | 387 ft | 4 kts | 182° |
| 2026-05-04 03:02 | 47.44126 | -122.30542 | 385 ft | 9 kts | 179° |
| 2026-05-04 03:02 | 47.44046 | -122.30541 | 383 ft | 12 kts | 179° |
| 2026-05-04 03:02 | 47.43985 | -122.30607 | 381 ft | 12 kts | 232° |
| 2026-05-04 03:02 | 47.43892 | -122.30638 | 378 ft | 16 kts | 179° |
| 2026-05-04 03:03 | 47.43785 | -122.30637 | 375 ft | 14 kts | 180° |
| 2026-05-04 03:03 | 47.43679 | -122.30632 | 372 ft | 18 kts | 175° |
| 2026-05-04 03:03 | 47.43582 | -122.30579 | 369 ft | 16 kts | 154° |
| 2026-05-04 03:03 | 47.43490 | -122.30556 | 369 ft | 13 kts | 178° |
| 2026-05-04 03:04 | 47.43392 | -122.30561 | 365 ft | 13 kts | 181° |
| 2026-05-04 03:04 | 47.43288 | -122.30562 | 363 ft | 17 kts | 180° |
| 2026-05-04 03:04 | 47.43190 | -122.30625 | 358 ft | 15 kts | 233° |
| 2026-05-04 03:04 | 47.43183 | -122.30758 | 356 ft | 12 kts | 298° |
| 2026-05-04 03:05 | 47.43257 | -122.30803 | 358 ft | 17 kts | 358° |
| 2026-05-04 03:05 | 47.43641 | -122.30800 | 368 ft | 98 kts | 2° |
| 2026-05-04 03:05 | 47.44575 | -122.30803 | 492 ft | 163 kts | 0° |
| 2026-05-04 03:05 | 47.45855 | -122.30780 | 1064 ft | 204 kts | 360° |
| 2026-05-04 03:06 | 47.47339 | -122.30816 | 2127 ft | 215 kts | 359° |
| 2026-05-04 03:06 | 47.48827 | -122.30865 | 3461 ft | 213 kts | 359° |
| 2026-05-04 03:06 | 47.50313 | -122.30907 | 4722 ft | 213 kts | 359° |
| 2026-05-04 03:06 | 47.51805 | -122.30936 | 5880 ft | 216 kts | 359° |
| 2026-05-04 03:07 | 47.53326 | -122.30963 | 7053 ft | 226 kts | 359° |
| 2026-05-04 03:07 | 47.55013 | -122.30992 | 7876 ft | 255 kts | 359° |
| 2026-05-04 03:07 | 47.56855 | -122.31015 | 8927 ft | 274 kts | 0° |
| 2026-05-04 03:07 | 47.58793 | -122.30753 | 10155 ft | 284 kts | 3° |
| 2026-05-04 03:08 | 47.60840 | -122.30690 | 11149 ft | 303 kts | 359° |
| 2026-05-04 03:08 | 47.62996 | -122.30702 | 12218 ft | 316 kts | 360° |
| 2026-05-04 03:08 | 47.65221 | -122.30720 | 13477 ft | 322 kts | 360° |
| 2026-05-04 03:08 | 47.67449 | -122.30258 | 14565 ft | 329 kts | 19° |
| 2026-05-04 03:09 | 47.69402 | -122.28500 | 15668 ft | 335 kts | 43° |
| 2026-05-04 03:09 | 47.70756 | -122.25646 | 16758 ft | 343 kts | 66° |
| 2026-05-04 03:09 | 47.71289 | -122.22177 | 17825 ft | 349 kts | 83° |
| 2026-05-04 03:09 | 47.71441 | -122.18562 | 18887 ft | 347 kts | 86° |
| 2026-05-04 03:10 | 47.71376 | -122.14956 | 19534 ft | 347 kts | 94° |
| 2026-05-04 03:10 | 47.71034 | -122.11374 | 20060 ft | 359 kts | 97° |
| 2026-05-04 03:10 | 47.70661 | -122.07675 | 20847 ft | 364 kts | 96° |
| 2026-05-04 03:10 | 47.70306 | -122.03930 | 21601 ft | 368 kts | 95° |
| 2026-05-04 03:11 | 47.69949 | -122.00138 | 22309 ft | 373 kts | 95° |
| 2026-05-04 03:11 | 47.69591 | -121.96309 | 23000 ft | 376 kts | 95° |
| 2026-05-04 03:11 | 47.69347 | -121.93697 | 23425 ft | 380 kts | 95° |
| 2026-05-04 03:11 | 47.68985 | -121.89849 | 23986 ft | 383 kts | 95° |
| 2026-05-04 03:12 | 47.68616 | -121.85920 | 24571 ft | 386 kts | 95° |
| 2026-05-04 03:12 | 47.68241 | -121.81955 | 25178 ft | 389 kts | 95° |
| 2026-05-04 03:12 | 47.67862 | -121.77956 | 25776 ft | 392 kts | 95° |
| 2026-05-04 03:12 | 47.67479 | -121.73927 | 26351 ft | 395 kts | 95° |
| 2026-05-04 03:13 | 47.67090 | -121.69879 | 26939 ft | 398 kts | 95° |
| 2026-05-04 03:13 | 47.66702 | -121.65807 | 27505 ft | 401 kts | 95° |
| 2026-05-04 03:13 | 47.66301 | -121.61696 | 28049 ft | 404 kts | 95° |
| 2026-05-04 03:13 | 47.65901 | -121.57553 | 28549 ft | 407 kts | 95° |
| 2026-05-04 03:14 | 47.65494 | -121.53386 | 29052 ft | 410 kts | 95° |
| 2026-05-04 03:14 | 47.65083 | -121.49187 | 29546 ft | 413 kts | 94° |
| 2026-05-04 03:14 | 47.64668 | -121.44967 | 30019 ft | 415 kts | 94° |
| 2026-05-04 03:14 | 47.64247 | -121.40722 | 30455 ft | 417 kts | 94° |
| 2026-05-04 03:15 | 47.63822 | -121.36457 | 30854 ft | 418 kts | 94° |
| 2026-05-04 03:15 | 47.63393 | -121.32171 | 31155 ft | 423 kts | 94° |
| 2026-05-04 03:15 | 47.62954 | -121.27787 | 31168 ft | 434 kts | 94° |
| 2026-05-04 03:16 | 47.62040 | -121.18790 | 31118 ft | 447 kts | 95° |
| 2026-05-04 03:16 | 47.61107 | -121.09702 | 31022 ft | 451 kts | 95° |
| 2026-05-04 03:17 | 47.60159 | -121.00514 | 31028 ft | 453 kts | 95° |
| 2026-05-04 03:17 | 47.59202 | -120.91301 | 31004 ft | 453 kts | 95° |
| 2026-05-04 03:18 | 47.58240 | -120.82078 | 31003 ft | 453 kts | 95° |
| 2026-05-04 03:18 | 47.57267 | -120.72837 | 30972 ft | 454 kts | 95° |
| 2026-05-04 03:19 | 47.56293 | -120.63619 | 30968 ft | 453 kts | 95° |
| 2026-05-04 03:19 | 47.55308 | -120.54388 | 30959 ft | 455 kts | 95° |
| 2026-05-04 03:20 | 47.54313 | -120.45147 | 30944 ft | 454 kts | 95° |
| 2026-05-04 03:20 | 47.53743 | -120.35888 | 30950 ft | 451 kts | 88° |
| 2026-05-04 03:21 | 47.53598 | -120.26671 | 30939 ft | 451 kts | 88° |
| 2026-05-04 03:21 | 47.53451 | -120.17329 | 30947 ft | 451 kts | 88° |
| 2026-05-04 03:22 | 47.53299 | -120.08051 | 30935 ft | 451 kts | 88° |
| 2026-05-04 03:22 | 47.53141 | -119.98835 | 30945 ft | 451 kts | 88° |
| 2026-05-04 03:23 | 47.52977 | -119.89534 | 30946 ft | 452 kts | 88° |
| 2026-05-04 03:23 | 47.52804 | -119.80233 | 30945 ft | 453 kts | 88° |
| 2026-05-04 03:24 | 47.52624 | -119.70906 | 30951 ft | 453 kts | 88° |
| 2026-05-04 03:24 | 47.52436 | -119.61593 | 30949 ft | 453 kts | 88° |
| 2026-05-04 03:25 | 47.52241 | -119.52272 | 30943 ft | 454 kts | 89° |
| 2026-05-04 03:25 | 47.52039 | -119.42947 | 30950 ft | 454 kts | 89° |
| 2026-05-04 03:26 | 47.51828 | -119.33606 | 30955 ft | 454 kts | 89° |
| 2026-05-04 03:26 | 47.51603 | -119.24263 | 30954 ft | 454 kts | 89° |
| 2026-05-04 03:27 | 47.51368 | -119.14947 | 30957 ft | 454 kts | 89° |
| 2026-05-04 03:27 | 47.51137 | -119.05647 | 30962 ft | 454 kts | 89° |
| 2026-05-04 03:28 | 47.50902 | -118.96302 | 30960 ft | 455 kts | 89° |
| 2026-05-04 03:28 | 47.50662 | -118.86947 | 30963 ft | 455 kts | 89° |
| 2026-05-04 03:29 | 47.50414 | -118.77588 | 30959 ft | 456 kts | 89° |
| 2026-05-04 03:29 | 47.50156 | -118.68222 | 30958 ft | 456 kts | 89° |
| 2026-05-04 03:30 | 47.49891 | -118.58849 | 30960 ft | 456 kts | 89° |
| 2026-05-04 03:30 | 47.49618 | -118.49455 | 30961 ft | 457 kts | 89° |
| 2026-05-04 03:31 | 47.49339 | -118.40081 | 30964 ft | 457 kts | 90° |
| 2026-05-04 03:31 | 47.49052 | -118.30691 | 30965 ft | 457 kts | 90° |
| 2026-05-04 03:32 | 47.48757 | -118.21303 | 30967 ft | 457 kts | 90° |
| 2026-05-04 03:32 | 47.48455 | -118.11958 | 30969 ft | 458 kts | 90° |
| 2026-05-04 03:33 | 47.48145 | -118.02582 | 30975 ft | 458 kts | 90° |
| 2026-05-04 03:33 | 47.47825 | -117.93123 | 30977 ft | 458 kts | 90° |
| 2026-05-04 03:34 | 47.47505 | -117.83781 | 30983 ft | 458 kts | 90° |
| 2026-05-04 03:34 | 47.47174 | -117.74357 | 30986 ft | 458 kts | 90° |
| 2026-05-04 03:35 | 47.46823 | -117.64945 | 30988 ft | 459 kts | 90° |
| 2026-05-04 03:35 | 47.47017 | -117.60276 | 31002 ft | 454 kts | 76° |
| 2026-05-04 03:35 | 47.47920 | -117.55831 | 31009 ft | 451 kts | 68° |
| 2026-05-04 03:36 | 47.50052 | -117.47100 | 30987 ft | 451 kts | 68° |
| 2026-05-04 03:36 | 47.52189 | -117.38371 | 30991 ft | 451 kts | 68° |
| 2026-05-04 03:37 | 47.54329 | -117.29630 | 30969 ft | 451 kts | 68° |
| 2026-05-04 03:37 | 47.56451 | -117.20945 | 30979 ft | 452 kts | 68° |
| 2026-05-04 03:38 | 47.58582 | -117.12185 | 30995 ft | 452 kts | 68° |
| 2026-05-04 03:38 | 47.59652 | -117.07779 | 30883 ft | 455 kts | 68° |
| 2026-05-04 03:38 | 47.60722 | -117.03379 | 30601 ft | 455 kts | 68° |
| 2026-05-04 03:38 | 47.61792 | -116.98978 | 30254 ft | 451 kts | 68° |
| 2026-05-04 03:39 | 47.62859 | -116.94582 | 30048 ft | 450 kts | 68° |
| 2026-05-04 03:39 | 47.63889 | -116.90303 | 29683 ft | 433 kts | 68° |
| 2026-05-04 03:39 | 47.64889 | -116.86166 | 29203 ft | 420 kts | 68° |
| 2026-05-04 03:39 | 47.65861 | -116.82137 | 28689 ft | 409 kts | 68° |
| 2026-05-04 03:40 | 47.66808 | -116.78204 | 28130 ft | 401 kts | 68° |
| 2026-05-04 03:40 | 47.67736 | -116.74352 | 27559 ft | 394 kts | 68° |
| 2026-05-04 03:40 | 47.68649 | -116.70548 | 26950 ft | 388 kts | 68° |
| 2026-05-04 03:40 | 47.69551 | -116.66786 | 26329 ft | 385 kts | 68° |
| 2026-05-04 03:41 | 47.70444 | -116.63060 | 25689 ft | 382 kts | 68° |
| 2026-05-04 03:41 | 47.71332 | -116.59347 | 25025 ft | 381 kts | 68° |
| 2026-05-04 03:41 | 47.72213 | -116.55651 | 24344 ft | 380 kts | 68° |
| 2026-05-04 03:41 | 47.73094 | -116.51944 | 23626 ft | 381 kts | 68° |
| 2026-05-04 03:42 | 47.73961 | -116.48298 | 23240 ft | 372 kts | 68° |
| 2026-05-04 03:42 | 47.74800 | -116.44721 | 24079 ft | 357 kts | 68° |
| 2026-05-04 03:42 | 47.75569 | -116.41357 | 25250 ft | 347 kts | 68° |
| 2026-05-04 03:42 | 47.76354 | -116.37901 | 25747 ft | 347 kts | 68° |
| 2026-05-04 03:43 | 47.77088 | -116.34667 | 26491 ft | 322 kts | 68° |
| 2026-05-04 03:43 | 47.77868 | -116.31339 | 25999 ft | 358 kts | 67° |
| 2026-05-04 03:43 | 47.78738 | -116.27658 | 25481 ft | 392 kts | 68° |
| 2026-05-04 03:43 | 47.79660 | -116.23731 | 24994 ft | 411 kts | 68° |
| 2026-05-04 03:44 | 47.80612 | -116.19669 | 24516 ft | 421 kts | 68° |
| 2026-05-04 03:44 | 47.81580 | -116.15537 | 24048 ft | 425 kts | 68° |
| 2026-05-04 03:44 | 47.82549 | -116.11381 | 23580 ft | 425 kts | 68° |
| 2026-05-04 03:44 | 47.83517 | -116.07220 | 23056 ft | 424 kts | 68° |
| 2026-05-04 03:45 | 47.84460 | -116.03114 | 22913 ft | 409 kts | 69° |
| 2026-05-04 03:45 | 47.85360 | -115.99167 | 22684 ft | 401 kts | 68° |
| 2026-05-04 03:45 | 47.86262 | -115.95265 | 22221 ft | 396 kts | 68° |
| 2026-05-04 03:45 | 47.87148 | -115.91409 | 21733 ft | 390 kts | 69° |
| 2026-05-04 03:46 | 47.88006 | -115.87606 | 21311 ft | 385 kts | 69° |
| 2026-05-04 03:46 | 47.88867 | -115.83829 | 20748 ft | 385 kts | 69° |
| 2026-05-04 03:46 | 47.89714 | -115.80121 | 20629 ft | 376 kts | 69° |
| 2026-05-04 03:46 | 47.90552 | -115.76451 | 20411 ft | 376 kts | 69° |
| 2026-05-04 03:47 | 47.91396 | -115.72743 | 20221 ft | 377 kts | 69° |
| 2026-05-04 03:47 | 47.92242 | -115.69037 | 20014 ft | 376 kts | 69° |
| 2026-05-04 03:47 | 47.93085 | -115.65344 | 19816 ft | 376 kts | 69° |
| 2026-05-04 03:47 | 47.93911 | -115.61701 | 19627 ft | 375 kts | 69° |
| 2026-05-04 03:48 | 47.94745 | -115.58015 | 19431 ft | 375 kts | 69° |
| 2026-05-04 03:48 | 47.95576 | -115.54341 | 19222 ft | 373 kts | 69° |
| 2026-05-04 03:48 | 47.96402 | -115.50683 | 19023 ft | 372 kts | 69° |
| 2026-05-04 03:48 | 47.97227 | -115.47025 | 18826 ft | 371 kts | 69° |
| 2026-05-04 03:49 | 47.98050 | -115.43379 | 18632 ft | 370 kts | 69° |
| 2026-05-04 03:49 | 47.98869 | -115.39741 | 18433 ft | 370 kts | 69° |
| 2026-05-04 03:49 | 47.99684 | -115.36104 | 18249 ft | 369 kts | 69° |
| 2026-05-04 03:49 | 48.00494 | -115.32485 | 18081 ft | 368 kts | 69° |
| 2026-05-04 03:50 | 48.01303 | -115.28870 | 17865 ft | 367 kts | 69° |
| 2026-05-04 03:50 | 48.02108 | -115.25262 | 17681 ft | 365 kts | 69° |
| 2026-05-04 03:50 | 48.02909 | -115.21665 | 17484 ft | 363 kts | 69° |
| 2026-05-04 03:50 | 48.03692 | -115.18140 | 17292 ft | 363 kts | 69° |
| 2026-05-04 03:51 | 48.04460 | -115.14482 | 16945 ft | 362 kts | 76° |
| 2026-05-04 03:51 | 48.04560 | -115.10716 | 16499 ft | 366 kts | 94° |
| 2026-05-04 03:51 | 48.04234 | -115.06960 | 15994 ft | 363 kts | 95° |
| 2026-05-04 03:51 | 48.03953 | -115.03230 | 15510 ft | 359 kts | 94° |
| 2026-05-04 03:52 | 48.03698 | -114.99538 | 15018 ft | 354 kts | 94° |
| 2026-05-04 03:52 | 48.03460 | -114.95898 | 14549 ft | 350 kts | 94° |
| 2026-05-04 03:52 | 48.03234 | -114.92354 | 14114 ft | 346 kts | 93° |
| 2026-05-04 03:52 | 48.03015 | -114.88798 | 13658 ft | 341 kts | 93° |
| 2026-05-04 03:53 | 48.02802 | -114.85299 | 13200 ft | 334 kts | 93° |
| 2026-05-04 03:53 | 48.02596 | -114.81895 | 12753 ft | 323 kts | 93° |
| 2026-05-04 03:53 | 48.02399 | -114.78621 | 12348 ft | 311 kts | 92° |
| 2026-05-04 03:53 | 48.02207 | -114.75426 | 11961 ft | 307 kts | 92° |
| 2026-05-04 03:54 | 48.02017 | -114.72255 | 11547 ft | 305 kts | 92° |
| 2026-05-04 03:54 | 48.01827 | -114.69117 | 11151 ft | 302 kts | 92° |
| 2026-05-04 03:54 | 48.01640 | -114.66000 | 10759 ft | 299 kts | 92° |
| 2026-05-04 03:54 | 48.01452 | -114.62918 | 10365 ft | 297 kts | 92° |
| 2026-05-04 03:55 | 48.01330 | -114.59898 | 9921 ft | 283 kts | 81° |
| 2026-05-04 03:55 | 48.02037 | -114.57298 | 9142 ft | 269 kts | 47° |
| 2026-05-04 03:55 | 48.03269 | -114.55292 | 8787 ft | 255 kts | 49° |
| 2026-05-04 03:55 | 48.04305 | -114.53154 | 8535 ft | 252 kts | 43° |
| 2026-05-04 03:56 | 48.05742 | -114.51683 | 8146 ft | 249 kts | 25° |
| 2026-05-04 03:56 | 48.07217 | -114.50416 | 7983 ft | 242 kts | 32° |
| 2026-05-04 03:56 | 48.08555 | -114.48917 | 7766 ft | 238 kts | 34° |
| 2026-05-04 03:56 | 48.09900 | -114.47496 | 7516 ft | 235 kts | 30° |
| 2026-05-04 03:57 | 48.11252 | -114.46161 | 7270 ft | 228 kts | 31° |
| 2026-05-04 03:57 | 48.12511 | -114.44842 | 7003 ft | 212 kts | 32° |
| 2026-05-04 03:57 | 48.13681 | -114.43617 | 6727 ft | 200 kts | 31° |
| 2026-05-04 03:57 | 48.14817 | -114.42438 | 6487 ft | 198 kts | 31° |
| 2026-05-04 03:58 | 48.17014 | -114.40163 | 5975 ft | 186 kts | 31° |
| 2026-05-04 03:58 | 48.18053 | -114.39085 | 5763 ft | 177 kts | 31° |
| 2026-05-04 03:58 | 48.19059 | -114.38041 | 5537 ft | 175 kts | 31° |
| 2026-05-04 03:59 | 48.20060 | -114.37002 | 5300 ft | 174 kts | 31° |
| 2026-05-04 03:59 | 48.21037 | -114.35998 | 5061 ft | 163 kts | 31° |
| 2026-05-04 03:59 | 48.21933 | -114.35067 | 4883 ft | 150 kts | 31° |
| 2026-05-04 03:59 | 48.22789 | -114.34164 | 4676 ft | 151 kts | 33° |
| 2026-05-04 04:00 | 48.23360 | -114.33568 | 4536 ft | 151 kts | 34° |
| 2026-05-04 04:00 | 48.24220 | -114.32669 | 4332 ft | 150 kts | 37° |
| 2026-05-04 04:00 | 48.25071 | -114.31782 | 4132 ft | 149 kts | 37° |
| 2026-05-04 04:00 | 48.25920 | -114.30899 | 3941 ft | 149 kts | 37° |
| 2026-05-04 04:01 | 48.26769 | -114.30023 | 3747 ft | 146 kts | 36° |
| 2026-05-04 04:01 | 48.27593 | -114.29161 | 3557 ft | 144 kts | 35° |
| 2026-05-04 04:01 | 48.28399 | -114.28310 | 3364 ft | 138 kts | 34° |
| 2026-05-04 04:01 | 48.29179 | -114.27501 | 3190 ft | 137 kts | 34° |
| 2026-05-04 04:02 | 48.29964 | -114.26687 | 3013 ft | 136 kts | 35° |
| 2026-05-04 04:02 | 48.30677 | -114.25935 | 2967 ft | 113 kts | 35° |
| 2026-05-04 04:02 | 48.31172 | -114.25418 | 2966 ft | 45 kts | 33° |
| 2026-05-04 04:02 | 48.31350 | -114.25237 | 2967 ft | 29 kts | 36° |
| 2026-05-04 04:03 | 48.31508 | -114.25070 | 2961 ft | 23 kts | 36° |
| 2026-05-04 04:03 | 48.31602 | -114.24966 | 2956 ft | 13 kts | 36° |
| 2026-05-04 04:03 | 48.31682 | -114.24883 | 2963 ft | 16 kts | 34° |
| 2026-05-04 04:03 | 48.31766 | -114.24758 | 2965 ft | 16 kts | 91° |
| 2026-05-04 04:04 | 48.31706 | -114.24666 | 2953 ft | 13 kts | 193° |
| 2026-05-04 04:04 | 48.31622 | -114.24741 | 2962 ft | 15 kts | 214° |
| 2026-05-04 04:04 | 48.31529 | -114.24835 | 2961 ft | 18 kts | 216° |
| 2026-05-04 04:04 | 48.31436 | -114.24933 | 2962 ft | 16 kts | 215° |
| 2026-05-04 04:05 | 48.31344 | -114.25027 | 2960 ft | 17 kts | 216° |
| 2026-05-04 04:05 | 48.31249 | -114.25130 | 2969 ft | 16 kts | 215° |
| 2026-05-04 04:05 | 48.31156 | -114.25224 | 2970 ft | 17 kts | 216° |
| 2026-05-04 04:05 | 48.31056 | -114.25310 | 2971 ft | 16 kts | 184° |
| 2026-05-04 04:06 | 48.30965 | -114.25307 | 2975 ft | 13 kts | 177° |
| 2026-05-04 04:06 | 48.30893 | -114.25346 | 2975 ft | 9 kts | 218° |
| 2026-05-04 04:06 | 48.30858 | -114.25346 | 2975 ft | 2 kts | 128° |
| 2026-05-04 04:06 | 48.30848 | -114.25324 | 2975 ft | 4 kts | 125° |
| 2026-05-04 04:07 | 48.30834 | -114.25295 | 2975 ft | 2 kts | 124° |
| 2026-05-04 04:07 | 48.30828 | -114.25282 | 2975 ft | 0 kts | 124° |